createdAt,value
2018-11-04T20:14:17.697Z,14.12
2018-11-04T20:15:31.928Z,14.03
2018-11-04T20:16:46.686Z,13.98
2018-11-04T20:18:00.684Z,13.97
2018-11-04T20:19:15.308Z,13.92
2018-11-04T20:20:30.108Z,13.87
2018-11-04T20:21:44.107Z,13.87
2018-11-04T20:22:58.014Z,13.88
2018-11-04T20:24:11.624Z,13.89
2018-11-04T20:25:25.235Z,13.91
2018-11-04T20:26:40.136Z,13.92
2018-11-04T20:27:54.465Z,13.94
2018-11-04T20:29:08.929Z,13.98
2018-11-04T20:30:37.438Z,13.99
2018-11-04T20:31:51.550Z,14
2018-11-04T20:33:06.513Z,13.99
2018-11-04T20:34:20.979Z,14
2018-11-04T20:35:35.314Z,14.04
2018-11-04T20:36:49.396Z,14.08
2018-11-04T20:38:03.795Z,14.1
2018-11-04T20:39:18.625Z,14.11
2018-11-04T20:41:02.107Z,14.1
2018-11-04T20:42:16.018Z,14.09
2018-11-04T20:43:30.374Z,14.07
2018-11-04T20:44:44.880Z,14.07
2018-11-04T20:46:13.890Z,14.05
2018-11-04T20:47:28.039Z,14.04
2018-11-04T20:48:41.964Z,14
2018-11-04T20:49:56.051Z,13.98
2018-11-04T20:51:09.957Z,13.97
2018-11-04T20:52:24.655Z,13.95
2018-11-04T20:53:39.432Z,13.97
2018-11-04T20:54:53.035Z,13.98
2018-11-04T20:56:07.381Z,13.99
2018-11-04T20:57:21.280Z,13.95
2018-11-04T20:58:36.374Z,13.94
2018-11-04T20:59:51.562Z,13.92
2018-11-04T21:01:06.084Z,13.92
2018-11-04T21:02:20.506Z,13.89
2018-11-04T21:03:36.049Z,13.85
2018-11-04T21:04:50.912Z,13.8
2018-11-04T21:06:05.083Z,13.74
2018-11-04T21:07:34.712Z,13.72
2018-11-04T21:08:49.547Z,13.69
2018-11-04T21:10:03.647Z,13.7
2018-11-04T21:11:18.368Z,13.71
2018-11-04T21:12:33.052Z,13.72
2018-11-04T21:13:46.677Z,13.73
2018-11-04T21:15:01.099Z,13.74
2018-11-04T21:16:16.207Z,13.78
2018-11-04T21:17:31.525Z,13.77
2018-11-04T21:18:46.105Z,13.77
2018-11-04T21:20:00.877Z,13.77
2018-11-04T21:21:15.083Z,13.74
2018-11-04T21:22:29.417Z,13.76
2018-11-04T21:23:58.197Z,13.8
2018-11-04T21:25:12.571Z,13.8
2018-11-04T21:26:28.357Z,13.81
2018-11-04T21:27:42.493Z,13.81
2018-11-04T21:28:57.451Z,13.82
2018-11-04T21:30:11.845Z,13.81
2018-11-04T21:31:25.698Z,13.81
2018-11-04T21:32:40.229Z,13.8
2018-11-04T21:33:54.323Z,13.81
2018-11-04T21:35:08.368Z,13.85
2018-11-04T21:36:22.955Z,13.88
2018-11-04T21:37:38.623Z,13.89
2018-11-04T22:27:30.110Z,14.05
2018-11-04T22:28:43.662Z,14.05
2018-11-04T22:29:57.457Z,14.06
2018-11-04T22:31:11.057Z,14.11
2018-11-04T22:32:25.324Z,14.09
2018-11-04T22:33:39.699Z,14.09
2018-11-04T22:34:53.345Z,14.04
2018-11-04T22:36:07.152Z,14
2018-11-04T22:37:21.176Z,13.97
2018-11-04T22:38:35.220Z,13.97
2018-11-04T22:39:49.288Z,13.96
2018-11-04T22:41:03.104Z,13.93
2018-11-04T22:42:17.440Z,13.94
2018-11-04T22:43:31.069Z,13.96
2018-11-04T22:44:44.846Z,13.95
2018-11-04T22:45:58.878Z,13.93
2018-11-04T22:47:12.707Z,13.94
2018-11-04T22:48:26.299Z,13.96
2018-11-04T22:49:40.350Z,13.96
2018-11-04T22:50:54.628Z,13.97
2018-11-04T22:52:08.804Z,13.97
2018-11-04T22:53:23.074Z,14
2018-11-04T22:54:36.866Z,14.01
2018-11-04T22:55:50.502Z,13.98
2018-11-04T22:57:05.229Z,13.95
2018-11-04T22:58:19.264Z,13.95
2018-11-04T22:59:33.595Z,13.96
2018-11-04T23:00:47.728Z,13.98
2018-11-04T23:02:02.106Z,14
2018-11-04T23:03:15.975Z,14.04
2018-11-04T23:04:30.064Z,14.03
2018-11-04T23:05:43.868Z,14.02
2018-11-04T23:06:58.137Z,13.97
2018-11-04T23:08:12.008Z,13.95
2018-11-04T23:09:26.042Z,13.94
2018-11-04T23:10:40.173Z,13.91
2018-11-04T23:11:54.294Z,13.89
2018-11-04T23:13:08.368Z,13.89
2018-11-04T23:14:22.235Z,13.89
2018-11-04T23:15:36.344Z,13.92
2018-11-04T23:16:50.838Z,13.92
2018-11-04T23:18:05.346Z,13.91
2018-11-04T23:19:19.617Z,13.89
2018-11-04T23:20:33.612Z,13.88
2018-11-04T23:22:02.700Z,13.84
2018-11-04T23:23:17.058Z,13.79
2018-11-04T23:24:45.314Z,13.8
2018-11-04T23:25:59.343Z,13.81
2018-11-04T23:27:13.843Z,13.8
2018-11-04T23:28:27.591Z,13.78
2018-11-04T23:29:41.225Z,13.79
2018-11-04T23:30:55.090Z,13.83
2018-11-04T23:32:09.016Z,13.84
2018-11-04T23:33:22.319Z,13.85
2018-11-04T23:34:36.356Z,13.85
2018-11-04T23:35:50.906Z,13.84
2018-11-04T23:37:05.012Z,13.84
2018-11-04T23:38:18.780Z,13.86
2018-11-04T23:39:32.820Z,13.88
2018-11-04T23:40:46.859Z,13.92
2018-11-04T23:42:01.181Z,13.95
2018-11-04T23:43:14.758Z,13.96
2018-11-04T23:44:28.794Z,13.96
2018-11-04T23:45:43.288Z,13.96
2018-11-04T23:46:56.605Z,13.96
2018-11-04T23:48:11.350Z,13.92
2018-11-04T23:49:25.417Z,13.91
2018-11-04T23:50:39.667Z,13.92
2018-11-04T23:51:53.468Z,13.88
2018-11-04T23:53:07.023Z,13.89
2018-11-04T23:54:21.558Z,13.87
2018-11-04T23:55:35.608Z,13.89
2018-11-04T23:56:49.884Z,13.93
2018-11-04T23:58:03.431Z,13.93
2018-11-04T23:59:17.434Z,13.95
